createdAt,value
2018-08-16T00:00:24.486Z,73.86
2018-08-16T00:01:05.059Z,73.67
2018-08-16T00:01:45.628Z,73.77
2018-08-16T00:02:26.180Z,73.67
2018-08-16T00:03:06.752Z,73.47
2018-08-16T00:03:47.317Z,73.67
2018-08-16T00:04:27.897Z,73.67
2018-08-16T00:05:08.492Z,73.47
2018-08-16T00:05:49.064Z,73.47
2018-08-16T00:06:29.619Z,73.38
2018-08-16T00:07:10.195Z,73.77
2018-08-16T00:07:50.759Z,73.86
2018-08-16T00:08:31.337Z,73.67
2018-08-16T00:09:11.881Z,73.86
2018-08-16T00:09:52.464Z,73.77
2018-08-16T00:10:33.029Z,73.47
2018-08-16T00:11:13.605Z,73.47
2018-08-16T00:11:54.152Z,73.57
2018-08-16T00:12:34.718Z,73.28
2018-08-16T00:13:15.363Z,73.09
2018-08-16T00:13:55.932Z,73.38
2018-08-16T00:14:36.472Z,73.28
2018-08-16T00:15:17.022Z,73.67
2018-08-16T00:15:57.591Z,73.86
2018-08-16T00:16:38.160Z,73.77
2018-08-16T00:17:18.743Z,73.47
2018-08-16T00:17:59.315Z,73.57
2018-08-16T00:18:39.881Z,73.86
2018-08-16T00:19:20.430Z,73.86
2018-08-16T00:20:01.006Z,73.92
2018-08-16T00:20:41.556Z,73.77
2018-08-16T00:21:22.124Z,73.67
2018-08-16T00:22:02.694Z,73.77
2018-08-16T00:22:43.267Z,73.86
2018-08-16T00:23:23.859Z,73.73
2018-08-16T00:24:04.421Z,73.63
2018-08-16T00:24:44.974Z,74.15
2018-08-16T00:25:25.533Z,74.02
2018-08-16T00:26:06.103Z,74.69
2018-08-16T00:26:46.666Z,74.73
2018-08-16T00:27:27.289Z,74.73
2018-08-16T00:28:07.839Z,74.69
2018-08-16T00:28:48.404Z,74.88
2018-08-16T00:29:28.980Z,74.82
2018-08-16T00:30:09.552Z,74.73
2018-08-16T00:30:50.100Z,74.6
2018-08-16T00:31:30.668Z,74.3
2018-08-16T00:32:11.254Z,74.5
2018-08-16T00:32:51.822Z,74.54
2018-08-16T00:33:32.395Z,74.6
2018-08-16T00:34:12.958Z,74.5
2018-08-16T00:34:53.510Z,74.5
2018-08-16T00:35:34.076Z,74.69
2018-08-16T00:36:14.641Z,74.69
2018-08-16T00:36:55.198Z,74.5
2018-08-16T00:37:35.770Z,74.5
2018-08-16T00:38:16.338Z,74.69
2018-08-16T00:38:56.901Z,74.79
2018-08-16T00:39:37.466Z,74.69
2018-08-16T00:40:18.018Z,74.69
2018-08-16T00:40:58.591Z,75.07
2018-08-16T00:41:39.203Z,74.88
2018-08-16T00:42:19.769Z,75.07
2018-08-16T00:43:00.375Z,75.27
2018-08-16T00:43:40.955Z,74.79
2018-08-16T00:44:21.504Z,75.56
2018-08-16T00:45:02.069Z,74.79
2018-08-16T00:45:42.629Z,75.17
2018-08-16T00:46:23.185Z,74.79
2018-08-16T00:47:03.756Z,74.88
2018-08-16T00:47:44.344Z,74.69
2018-08-16T00:48:24.899Z,74.5
2018-08-16T00:49:05.468Z,74.5
2018-08-16T00:49:46.059Z,74.69
2018-08-16T00:50:26.623Z,74.6
2018-08-16T00:51:07.177Z,74.6
2018-08-16T00:51:47.727Z,74.79
2018-08-16T00:52:28.287Z,74.88
2018-08-16T00:53:08.859Z,74.98
2018-08-16T00:53:49.452Z,75.07
2018-08-16T00:54:30.044Z,75.17
2018-08-16T00:55:10.603Z,74.6
2018-08-16T00:55:51.159Z,75.46
2018-08-16T00:56:31.738Z,75.17
2018-08-16T00:57:12.312Z,75.37
2018-08-16T00:57:52.865Z,74.98
2018-08-16T00:58:33.444Z,75.17
2018-08-16T00:59:13.999Z,75.56
2018-08-16T00:59:54.592Z,74.88
2018-08-16T01:00:35.192Z,74.88
2018-08-16T01:01:15.767Z,75.46
2018-08-16T01:01:56.343Z,75.07
2018-08-16T01:02:36.917Z,74.79
2018-08-16T01:03:17.484Z,75.65
2018-08-16T01:03:58.052Z,75.07
2018-08-16T01:04:38.626Z,74.79
2018-08-16T01:05:19.255Z,75.17
2018-08-16T01:05:59.841Z,75.65
2018-08-16T01:06:40.401Z,75.27
2018-08-16T01:07:20.953Z,75.17
2018-08-16T01:08:01.550Z,75.46
2018-08-16T01:08:42.101Z,75.17
2018-08-16T01:09:22.674Z,75.84
2018-08-16T01:10:03.231Z,75.56
2018-08-16T01:10:43.832Z,75.46
2018-08-16T01:11:24.437Z,75.94
2018-08-16T01:12:05.093Z,75.65
2018-08-16T01:12:45.640Z,75.65
2018-08-16T01:13:26.206Z,75.84
2018-08-16T01:14:06.755Z,75.46
2018-08-16T01:14:47.318Z,75.75
2018-08-16T01:15:27.871Z,75.17
2018-08-16T01:16:08.458Z,75.65
2018-08-16T01:16:49.000Z,75.46
2018-08-16T01:17:29.569Z,75.46
2018-08-16T01:18:10.159Z,75.37
2018-08-16T01:18:50.713Z,75.46
2018-08-16T01:19:31.275Z,75.17
2018-08-16T01:20:11.945Z,75.65
2018-08-16T01:20:52.423Z,75.46
2018-08-16T01:21:32.979Z,75.75
2018-08-16T01:22:13.541Z,75.17
2018-08-16T01:22:54.103Z,75.65
2018-08-16T01:23:34.669Z,75.65
2018-08-16T01:24:15.234Z,75.75
2018-08-16T01:24:55.810Z,75.46
2018-08-16T01:25:36.360Z,75.75
2018-08-16T01:26:16.952Z,75.65
2018-08-16T01:26:57.513Z,75.65
2018-08-16T01:27:38.074Z,75.94
2018-08-16T01:28:18.635Z,76.04
2018-08-16T01:28:59.185Z,76.04
2018-08-16T01:29:39.746Z,76.52
2018-08-16T01:30:20.301Z,76.42
2018-08-16T01:31:00.857Z,76.42
2018-08-16T01:31:41.426Z,76.23
2018-08-16T01:32:22.043Z,76.32
2018-08-16T01:33:02.623Z,76.42
2018-08-16T01:33:43.173Z,76.61
2018-08-16T01:34:23.743Z,76.52
2018-08-16T01:35:04.322Z,76.86
2018-08-16T01:35:45.003Z,76.61
2018-08-16T01:36:25.466Z,76.9
2018-08-16T01:37:06.021Z,77.19
2018-08-16T01:37:46.580Z,77
2018-08-16T01:38:27.146Z,77
2018-08-16T01:39:07.735Z,77.09
2018-08-16T01:39:48.292Z,76.77
2018-08-16T01:40:28.860Z,76.9
2018-08-16T01:41:09.421Z,76.9
2018-08-16T01:41:49.986Z,77.29
2018-08-16T01:42:30.557Z,77
2018-08-16T01:43:11.104Z,76.9
2018-08-16T01:43:51.684Z,76.57
2018-08-16T01:44:32.250Z,77.38
2018-08-16T01:45:12.803Z,76.9
2018-08-16T01:45:53.386Z,77.06
2018-08-16T01:46:33.946Z,76.96
2018-08-16T01:47:14.552Z,77.09
2018-08-16T01:47:55.104Z,77.06
2018-08-16T01:48:35.680Z,77.19
2018-08-16T01:49:16.223Z,77.06
2018-08-16T01:49:56.795Z,77.09
2018-08-16T01:50:37.384Z,76.77
2018-08-16T01:51:17.947Z,77
2018-08-16T01:51:58.509Z,77.53
2018-08-16T01:52:39.064Z,77.34
2018-08-16T01:53:19.634Z,77.34
2018-08-16T01:54:00.217Z,77.15
2018-08-16T01:54:40.770Z,77.53
2018-08-16T01:55:21.328Z,77.53
2018-08-16T01:56:01.898Z,77.44
2018-08-16T01:56:42.486Z,77.53
2018-08-16T01:57:23.045Z,77.53
2018-08-16T01:58:03.622Z,77.34
2018-08-16T01:58:44.194Z,77.44
2018-08-16T01:59:24.753Z,77.53
2018-08-16T02:00:05.328Z,77.44
2018-08-16T02:00:45.891Z,77.34
2018-08-16T02:01:26.453Z,77.53
2018-08-16T02:02:07.014Z,76.86
2018-08-16T02:02:47.573Z,76.77
2018-08-16T02:03:28.149Z,76.77
2018-08-16T02:04:08.722Z,76.96
2018-08-16T02:04:49.288Z,76.77
2018-08-16T02:05:29.866Z,76.77
2018-08-16T02:06:10.437Z,77.06
2018-08-16T02:06:51.003Z,77.15
2018-08-16T02:07:31.564Z,76.96
2018-08-16T02:08:12.131Z,76.86
2018-08-16T02:08:52.702Z,77.06
2018-08-16T02:09:33.270Z,76.86
2018-08-16T02:10:13.859Z,77.06
2018-08-16T02:10:54.421Z,77.15
2018-08-16T02:11:34.990Z,77.25
2018-08-16T02:12:15.564Z,77.15
2018-08-16T02:12:56.130Z,77.34
2018-08-16T02:13:36.727Z,77.15
2018-08-16T02:14:17.279Z,77.25
2018-08-16T02:14:57.850Z,77.25
2018-08-16T02:15:38.403Z,77.34
2018-08-16T02:16:18.967Z,77.44
2018-08-16T02:16:59.530Z,77.34
2018-08-16T02:17:40.102Z,77.34
2018-08-16T02:18:20.665Z,77.44
2018-08-16T02:19:01.230Z,77.44
2018-08-16T02:19:41.779Z,76.96
2018-08-16T02:20:22.367Z,77.06
2018-08-16T02:21:02.940Z,77.34
2018-08-16T02:21:43.529Z,77.06
2018-08-16T02:22:24.098Z,77.53
2018-08-16T02:23:04.672Z,77.53
2018-08-16T02:23:45.230Z,77.53
2018-08-16T02:24:25.800Z,77.25
2018-08-16T02:25:06.392Z,77.53
2018-08-16T02:25:46.992Z,77.53
2018-08-16T02:26:27.560Z,77.53
2018-08-16T02:27:08.110Z,77.63
2018-08-16T02:27:48.696Z,77.53
2018-08-16T02:28:29.263Z,77.53
2018-08-16T02:29:09.828Z,77.73
2018-08-16T02:29:50.404Z,77.44
2018-08-16T02:30:30.971Z,77.53
2018-08-16T02:31:11.546Z,77.73
2018-08-16T02:31:52.099Z,77.83
2018-08-16T02:32:32.651Z,77.53
2018-08-16T02:33:13.202Z,77.25
2018-08-16T02:33:53.760Z,77.34
2018-08-16T02:34:34.322Z,77.44
2018-08-16T02:35:14.889Z,77.25
2018-08-16T02:35:55.457Z,77.15
2018-08-16T02:36:36.035Z,77.34
2018-08-16T02:37:16.607Z,77.83
2018-08-16T02:37:57.171Z,77.92
2018-08-16T02:38:37.723Z,78.11
2018-08-16T02:39:18.289Z,78.02
2018-08-16T02:39:58.879Z,77.73
2018-08-16T02:40:39.450Z,77.53
2018-08-16T02:41:20.005Z,77.53
2018-08-16T02:42:00.570Z,76.77
2018-08-16T02:42:41.117Z,77.25
2018-08-16T02:43:21.675Z,76.67
2018-08-16T02:44:02.245Z,76.57
2018-08-16T02:44:42.818Z,76.57
2018-08-16T02:45:23.385Z,76.23
2018-08-16T02:46:03.979Z,75.9
2018-08-16T02:46:44.547Z,76.04
2018-08-16T02:47:25.153Z,75.94
2018-08-16T02:48:05.707Z,75.62
2018-08-16T02:48:46.276Z,75.81
2018-08-16T02:49:26.837Z,75.75
2018-08-16T02:50:07.406Z,75.71
2018-08-16T02:50:47.997Z,75.62
2018-08-16T02:51:28.530Z,75.62
2018-08-16T02:52:09.110Z,75.81
2018-08-16T02:52:49.671Z,75.71
2018-08-16T02:53:30.290Z,76
2018-08-16T02:54:10.875Z,76.19
2018-08-16T02:54:51.453Z,76
2018-08-16T02:55:32.079Z,76
2018-08-16T02:56:12.622Z,75.9
2018-08-16T02:56:53.210Z,75.81
2018-08-16T02:57:33.796Z,75.71
2018-08-16T02:58:14.350Z,75.81
2018-08-16T02:58:54.908Z,75.71
2018-08-16T02:59:35.461Z,76.19
2018-08-16T03:00:16.079Z,76.09
2018-08-16T03:00:56.632Z,75.9
2018-08-16T03:01:37.233Z,75.9
2018-08-16T03:02:17.794Z,75.9
2018-08-16T03:02:58.382Z,76.39
2018-08-16T03:03:38.937Z,76.29
2018-08-16T03:04:19.511Z,76.39
2018-08-16T03:05:00.082Z,76.19
2018-08-16T03:05:40.649Z,76.19
2018-08-16T03:06:21.243Z,76.48
2018-08-16T03:07:01.795Z,76.96
2018-08-16T03:07:42.374Z,76.57
2018-08-16T03:08:22.926Z,76.67
2018-08-16T03:09:03.494Z,76.67
2018-08-16T03:09:44.069Z,76.19
2018-08-16T03:10:24.629Z,75.9
2018-08-16T03:11:05.174Z,76.19
2018-08-16T03:11:45.752Z,75.62
2018-08-16T03:12:26.313Z,75.81
2018-08-16T03:13:06.900Z,75.62
2018-08-16T03:13:47.471Z,75.42
2018-08-16T03:14:28.057Z,75.42
2018-08-16T03:15:08.659Z,75.71
2018-08-16T03:15:49.244Z,75.04
2018-08-16T03:16:29.792Z,74.85
2018-08-16T03:17:10.364Z,75.13
2018-08-16T03:17:50.948Z,75.42
2018-08-16T03:18:31.518Z,75.13
2018-08-16T03:19:12.097Z,75.04
2018-08-16T03:19:52.662Z,75.23
2018-08-16T03:20:33.222Z,75.13
2018-08-16T03:21:13.782Z,75.23
2018-08-16T03:21:54.360Z,75.42
2018-08-16T03:22:34.940Z,75.42
2018-08-16T03:23:15.484Z,75.32
2018-08-16T03:23:56.028Z,75.42
2018-08-16T03:24:36.608Z,75.04
2018-08-16T03:25:17.173Z,75.32
2018-08-16T03:25:57.769Z,74.94
2018-08-16T03:26:38.310Z,75.52
2018-08-16T03:27:18.887Z,75.32
2018-08-16T03:27:59.456Z,74.94
2018-08-16T03:28:40.007Z,75.13
2018-08-16T03:29:20.603Z,75.42
2018-08-16T03:30:01.154Z,75.32
2018-08-16T03:30:41.712Z,75.23
2018-08-16T03:31:22.306Z,75.32
2018-08-16T03:32:02.852Z,75.13
2018-08-16T03:32:43.398Z,75.32
2018-08-16T03:33:23.957Z,75.42
2018-08-16T03:34:04.582Z,75.32
2018-08-16T03:34:45.155Z,75.52
2018-08-16T03:35:25.847Z,75.62
2018-08-16T03:36:06.272Z,75.42
2018-08-16T03:36:46.851Z,75.81
2018-08-16T03:37:27.416Z,75.71
2018-08-16T03:38:07.986Z,75.71
2018-08-16T03:38:48.553Z,75.62
2018-08-16T03:39:29.185Z,75.81
2018-08-16T03:40:09.714Z,75.52
2018-08-16T03:40:50.329Z,75.81
2018-08-16T03:41:30.866Z,75.62
2018-08-16T03:42:11.425Z,75.62
2018-08-16T03:42:51.995Z,75.32
2018-08-16T03:43:32.556Z,75.9
2018-08-16T03:44:13.117Z,75.71
2018-08-16T03:44:53.682Z,76
2018-08-16T03:45:34.244Z,76.29
2018-08-16T03:46:14.842Z,75.9
2018-08-16T03:46:55.451Z,75.52
2018-08-16T03:47:36.005Z,75.62
2018-08-16T03:48:16.671Z,75.81
2018-08-16T03:48:57.186Z,75.42
2018-08-16T03:49:37.740Z,75.62
2018-08-16T03:50:18.332Z,75.81
2018-08-16T03:50:58.898Z,75.52
2018-08-16T03:51:39.448Z,75.71
2018-08-16T03:52:20.032Z,75.71
2018-08-16T03:53:00.633Z,75.62
2018-08-16T03:53:41.214Z,75.71
2018-08-16T03:54:21.829Z,75.71
2018-08-16T03:55:02.426Z,75.9
2018-08-16T03:55:42.977Z,76
2018-08-16T03:56:23.584Z,76.19
2018-08-16T03:57:04.169Z,76.09
2018-08-16T03:57:44.759Z,76.67
2018-08-16T03:58:25.304Z,76.86
2018-08-16T03:59:05.886Z,76.86
2018-08-16T03:59:46.491Z,76.77
2018-08-16T04:00:27.060Z,76.57
2018-08-16T04:01:07.635Z,76.48
2018-08-16T04:01:48.192Z,76.48
2018-08-16T04:02:28.768Z,76.57
2018-08-16T04:03:09.339Z,76.86
2018-08-16T04:03:49.900Z,76.77
2018-08-16T04:04:30.462Z,76.86
2018-08-16T04:05:11.005Z,76.09
2018-08-16T04:05:51.596Z,76.77
2018-08-16T04:06:32.161Z,76.19
2018-08-16T04:07:12.718Z,76.39
2018-08-16T04:07:53.278Z,75.9
2018-08-16T04:08:33.853Z,76
2018-08-16T04:09:14.403Z,75.9
2018-08-16T04:09:54.966Z,75.71
2018-08-16T04:10:35.645Z,75.71
2018-08-16T04:11:16.218Z,75.23
2018-08-16T04:11:56.789Z,75.62
2018-08-16T04:12:37.387Z,75.42
2018-08-16T04:13:17.942Z,75.62
2018-08-16T04:13:58.521Z,75.62
2018-08-16T04:14:39.084Z,76.19
2018-08-16T04:15:19.725Z,75.9
2018-08-16T04:16:00.283Z,76.29
2018-08-16T04:16:40.965Z,76.19
2018-08-16T04:17:21.568Z,76.09
2018-08-16T04:18:02.123Z,76.77
2018-08-16T04:18:42.681Z,76.57
2018-08-16T04:19:23.246Z,76.67
2018-08-16T04:20:03.822Z,76.86
2018-08-16T04:20:44.452Z,77.06
2018-08-16T04:21:25.023Z,77.63
2018-08-16T04:22:05.584Z,77.34
2018-08-16T04:22:46.147Z,77.06
2018-08-16T04:23:26.705Z,77.53
2018-08-16T04:24:07.252Z,77.73
2018-08-16T04:24:47.824Z,77.73
2018-08-16T04:25:28.384Z,78.5
2018-08-16T04:26:08.956Z,78.5
2018-08-16T04:26:49.516Z,78.27
2018-08-16T04:27:30.076Z,78.11
2018-08-16T04:28:10.640Z,78.4
2018-08-16T04:28:51.199Z,78.02
2018-08-16T04:29:31.761Z,78.11
2018-08-16T04:30:12.375Z,78.4
2018-08-16T04:30:52.929Z,78.21
2018-08-16T04:31:33.500Z,78.21
2018-08-16T04:32:14.071Z,78.4
2018-08-16T04:32:54.637Z,78.4
2018-08-16T04:33:35.209Z,78.02
2018-08-16T04:34:15.776Z,78.21
2018-08-16T04:34:56.376Z,78.3
2018-08-16T04:35:36.906Z,78.21
2018-08-16T04:36:17.469Z,77.83
2018-08-16T04:36:58.023Z,77.83
2018-08-16T04:37:38.695Z,77.73
2018-08-16T04:38:19.255Z,77.63
2018-08-16T04:38:59.817Z,77.15
2018-08-16T04:39:40.379Z,77.34
2018-08-16T04:40:20.938Z,77.34
2018-08-16T04:41:01.495Z,77.34
2018-08-16T04:41:42.243Z,77.34
2018-08-16T04:42:22.624Z,77.15
2018-08-16T04:43:03.198Z,77.34
2018-08-16T04:43:43.772Z,77.34
2018-08-16T04:44:24.334Z,76.77
2018-08-16T04:45:04.896Z,77.34
2018-08-16T04:45:45.475Z,77.25
2018-08-16T04:46:26.091Z,77.15
2018-08-16T04:47:06.657Z,77.06
2018-08-16T04:47:47.238Z,77.73
2018-08-16T04:48:27.849Z,77.63
2018-08-16T04:49:08.384Z,77.63
2018-08-16T04:49:48.954Z,77.15
2018-08-16T04:50:29.516Z,77.53
2018-08-16T04:51:10.116Z,77.63
2018-08-16T04:51:50.741Z,77.53
2018-08-16T04:52:31.313Z,77.25
2018-08-16T04:53:11.864Z,76.86
2018-08-16T04:53:52.438Z,77.19
2018-08-16T04:54:33.009Z,76.81
2018-08-16T04:55:13.746Z,76.42
2018-08-16T04:55:54.202Z,76.32
2018-08-16T04:56:34.776Z,76.04
2018-08-16T04:57:15.353Z,76.23
2018-08-16T04:57:55.904Z,76.23
2018-08-16T04:58:36.471Z,75.84
2018-08-16T04:59:17.038Z,75.94
2018-08-16T04:59:57.605Z,75.65
2018-08-16T05:00:38.165Z,75.46
2018-08-16T05:01:18.736Z,74.88
2018-08-16T05:01:59.301Z,74.88
2018-08-16T05:02:39.861Z,75.07
2018-08-16T05:03:20.423Z,75.07
2018-08-16T05:04:01.011Z,75.07
2018-08-16T05:04:41.551Z,74.69
2018-08-16T05:05:22.116Z,74.79
2018-08-16T05:06:02.696Z,74.69
2018-08-16T05:06:43.259Z,74.98
2018-08-16T05:07:23.825Z,74.98
2018-08-16T05:08:04.391Z,74.69
2018-08-16T05:08:44.954Z,74.69
2018-08-16T05:09:25.530Z,74.98
2018-08-16T05:10:06.095Z,74.6
2018-08-16T05:10:46.698Z,74.6
2018-08-16T05:11:27.333Z,74.6
2018-08-16T05:12:07.940Z,74.69
2018-08-16T05:12:48.602Z,74.79
2018-08-16T05:13:29.190Z,74.79
2018-08-16T05:14:09.752Z,74.3
2018-08-16T05:14:50.322Z,74.11
2018-08-16T05:15:30.906Z,74.25
2018-08-16T05:16:11.460Z,74.15
2018-08-16T05:16:52.025Z,74.21
2018-08-16T05:17:32.588Z,74.21
2018-08-16T05:18:13.192Z,74.11
2018-08-16T05:18:53.776Z,74.25
2018-08-16T05:19:34.333Z,74.25
2018-08-16T05:20:14.879Z,74.25
2018-08-16T05:20:55.450Z,73.86
2018-08-16T05:21:36.013Z,73.96
2018-08-16T05:22:16.588Z,73.57
2018-08-16T05:22:57.135Z,73.09
2018-08-16T05:23:37.700Z,73.28
2018-08-16T05:24:18.300Z,73.47
2018-08-16T05:24:58.877Z,73.57
2018-08-16T05:25:39.452Z,73.61
2018-08-16T05:26:20.017Z,72.8
2018-08-16T05:27:00.599Z,72.94
2018-08-16T05:27:41.177Z,72.9
2018-08-16T05:28:21.772Z,73.22
2018-08-16T05:29:02.372Z,73.32
2018-08-16T05:29:42.945Z,72.9
2018-08-16T05:30:23.508Z,72.8
2018-08-16T05:31:04.066Z,72.9
2018-08-16T05:31:44.727Z,73.42
2018-08-16T05:32:25.213Z,73.42
2018-08-16T05:33:05.810Z,73.03
2018-08-16T05:33:46.371Z,73.57
2018-08-16T05:34:26.927Z,73.57
2018-08-16T05:35:07.505Z,73.28
2018-08-16T05:35:48.153Z,73.51
2018-08-16T05:36:28.665Z,73.47
2018-08-16T05:37:09.227Z,73.47
2018-08-16T05:37:49.788Z,73.19
2018-08-16T05:38:30.376Z,73.32
2018-08-16T05:39:11.184Z,73.09
2018-08-16T05:39:51.757Z,73.38
2018-08-16T05:40:32.332Z,73.67
2018-08-16T05:41:12.911Z,73.67
2018-08-16T05:41:53.489Z,74.05
2018-08-16T05:42:34.120Z,73.67
2018-08-16T05:43:14.755Z,73.8
2018-08-16T05:43:55.349Z,74.48
2018-08-16T05:44:35.945Z,74.38
2018-08-16T05:45:16.553Z,74.48
2018-08-16T05:45:57.133Z,73.9
2018-08-16T05:46:37.701Z,73.71
2018-08-16T05:47:18.280Z,73.71
2018-08-16T05:47:58.864Z,73.9
2018-08-16T05:48:39.586Z,73.61
2018-08-16T05:49:20.209Z,73.61
2018-08-16T05:50:00.889Z,73.51
2018-08-16T05:50:41.501Z,73.61
2018-08-16T05:51:23.151Z,73.42
2018-08-16T05:52:03.810Z,73.51
2018-08-16T05:52:44.451Z,73.51
2018-08-16T05:53:25.018Z,73.51
2018-08-16T05:54:05.666Z,73.42
2018-08-16T05:54:46.207Z,73.03
2018-08-16T05:55:26.810Z,73.03
2018-08-16T05:56:07.358Z,72.65
2018-08-16T05:56:47.978Z,72.17
2018-08-16T05:57:28.549Z,72.36
2018-08-16T05:58:09.137Z,72.36
2018-08-16T05:58:49.712Z,72.17
2018-08-16T05:59:30.368Z,71.97
2018-08-16T06:00:10.818Z,71.69
2018-08-16T06:00:51.377Z,71.34
2018-08-16T06:01:31.945Z,71.04
2018-08-16T06:02:12.519Z,71.04
2018-08-16T06:02:53.118Z,70.56
2018-08-16T06:03:33.640Z,70.37
2018-08-16T06:04:14.212Z,70.09
2018-08-16T06:04:54.808Z,70.09
2018-08-16T06:05:35.374Z,69.73
2018-08-16T06:06:15.932Z,69.54
2018-08-16T06:06:56.510Z,69.31
2018-08-16T06:07:37.132Z,68.68
2018-08-16T06:08:17.630Z,68.38
2018-08-16T06:08:58.204Z,68.48
2018-08-16T06:09:38.787Z,68.58
2018-08-16T06:10:19.457Z,68.58
2018-08-16T06:11:00.017Z,68.29
2018-08-16T06:11:40.587Z,68.38
2018-08-16T06:12:21.175Z,68.52
2018-08-16T06:13:01.745Z,68.13
2018-08-16T06:13:42.407Z,67.74
2018-08-16T06:14:23.111Z,67.55
2018-08-16T06:15:03.711Z,67.46
2018-08-16T06:15:44.315Z,67.65
2018-08-16T06:16:25.121Z,66.88
2018-08-16T06:17:06.753Z,66.91
2018-08-16T06:17:47.426Z,66.72
2018-08-16T06:18:28.250Z,66.91
2018-08-16T06:19:09.879Z,66.24
2018-08-16T06:19:50.508Z,65.85
2018-08-16T06:20:31.321Z,65.56
2018-08-16T06:21:11.884Z,65.75
2018-08-16T06:21:52.482Z,65.2
2018-08-16T06:22:33.093Z,65.2
2018-08-16T06:23:13.683Z,64.72
2018-08-16T06:23:54.273Z,64.92
2018-08-16T06:24:34.915Z,64.15
2018-08-16T06:25:16.535Z,64.47
2018-08-16T06:25:56.912Z,63.89
2018-08-16T06:26:37.633Z,63.79
2018-08-16T06:27:18.293Z,63.31
2018-08-16T06:27:59.012Z,63.7
2018-08-16T06:28:39.582Z,63.21
2018-08-16T06:29:20.191Z,63.98
2018-08-16T06:30:00.753Z,63.34
2018-08-16T06:30:41.442Z,62.95
2018-08-16T06:31:22.098Z,62.76
2018-08-16T06:32:02.927Z,62.76
2018-08-16T06:32:43.825Z,62.37
2018-08-16T06:33:25.552Z,61.6
2018-08-16T06:34:06.324Z,61.63
2018-08-16T06:34:46.906Z,61.44
2018-08-16T06:35:27.624Z,60.86
2018-08-16T06:36:09.411Z,60.57
2018-08-16T06:36:50.304Z,60.67
2018-08-16T06:37:31.103Z,60.86
2018-08-16T06:38:11.924Z,60.67
2018-08-16T06:38:52.728Z,60.21
2018-08-16T06:39:34.125Z,60.21
2018-08-16T06:40:14.998Z,59.25
2018-08-16T06:40:55.840Z,59.53
2018-08-16T06:41:36.517Z,59.15
2018-08-16T06:42:17.278Z,58.89
2018-08-16T06:42:58.406Z,58.67
2018-08-16T06:43:39.925Z,58.7
2018-08-16T06:44:21.115Z,58.21
2018-08-16T06:45:02.204Z,58.31
2018-08-16T06:45:43.465Z,58.89
2018-08-16T06:46:25.700Z,58.72
2018-08-16T06:47:06.775Z,58.5
2018-08-16T06:47:48.043Z,57.86
2018-08-16T06:48:28.882Z,57.76
2018-08-16T06:49:10.759Z,57.76
2018-08-16T06:49:52.066Z,57.56
2018-08-16T06:50:32.708Z,57.28
2018-08-16T06:51:13.622Z,57.86
2018-08-16T06:51:54.232Z,57.86
2018-08-16T06:52:34.866Z,57.08
2018-08-16T06:53:16.806Z,57.01
2018-08-16T06:53:57.598Z,56.92
2018-08-16T06:54:38.180Z,57.3
2018-08-16T06:55:18.776Z,56.62
2018-08-16T06:55:59.383Z,56.24
2018-08-16T06:56:39.968Z,57.11
2018-08-16T06:57:20.549Z,57.01
2018-08-16T06:58:01.164Z,56.43
2018-08-16T06:58:41.926Z,56.16
2018-08-16T06:59:23.778Z,56.46
2018-08-16T07:00:06.186Z,56.16
2018-08-16T07:00:46.771Z,55.49
2018-08-16T07:01:27.373Z,55.1
2018-08-16T07:02:07.955Z,54.52
2018-08-16T07:02:48.592Z,55.1
2018-08-16T07:03:29.498Z,55.98
2018-08-16T07:04:12.017Z,56.56
2018-08-16T07:04:52.831Z,57.23
2018-08-16T07:05:33.393Z,56.16
2018-08-16T07:06:13.957Z,56.77
2018-08-16T07:06:54.523Z,56.75
2018-08-16T07:07:35.104Z,56.16
2018-08-16T07:08:15.681Z,55.78
2018-08-16T07:08:56.249Z,55.04
2018-08-16T07:09:36.822Z,55.81
2018-08-16T07:10:17.432Z,55.42
2018-08-16T07:10:58.004Z,54.74
2018-08-16T07:11:38.599Z,54.45
2018-08-16T07:12:19.336Z,53.87
2018-08-16T07:12:59.892Z,54.26
2018-08-16T07:13:40.466Z,54.64
2018-08-16T07:14:21.051Z,53.49
2018-08-16T07:15:01.635Z,53.67
2018-08-16T07:15:42.213Z,53.31
2018-08-16T07:16:22.823Z,53.31
2018-08-16T07:17:03.515Z,52.64
2018-08-16T07:17:44.151Z,52.54
2018-08-16T07:18:24.722Z,52.93
2018-08-16T07:19:05.690Z,52.44
2018-08-16T07:19:46.591Z,52.64
2018-08-16T07:20:27.177Z,52.83
2018-08-16T07:21:07.907Z,53.02
2018-08-16T07:21:48.503Z,52.83
2018-08-16T07:22:29.110Z,52.83
2018-08-16T07:23:09.704Z,52.93
2018-08-16T07:23:50.431Z,52.47
2018-08-16T07:24:31.082Z,51.4
2018-08-16T07:25:11.993Z,52.34
2018-08-16T07:25:53.548Z,50.92
2018-08-16T07:26:34.349Z,51.01
2018-08-16T07:27:15.047Z,50.92
2018-08-16T07:27:55.925Z,51.01
2018-08-16T07:28:37.005Z,51.59
2018-08-16T07:29:17.607Z,51.89
2018-08-16T07:29:58.313Z,52.47
2018-08-16T07:30:38.904Z,52.78
2018-08-16T07:31:19.576Z,52.47
2018-08-16T07:32:03.851Z,50.84
2018-08-16T07:32:44.666Z,49.87
2018-08-16T07:33:26.763Z,49.58
2018-08-16T07:34:07.543Z,49.77
2018-08-16T07:34:48.354Z,49.39
2018-08-16T07:35:31.857Z,49.85
2018-08-16T07:36:12.477Z,50.07
2018-08-16T07:36:53.048Z,49.87
2018-08-16T07:37:34.514Z,49.87
2018-08-16T07:38:14.963Z,49.87
2018-08-16T07:38:55.555Z,49.77
2018-08-16T07:39:36.148Z,50.74
2018-08-16T07:40:16.741Z,51.62
2018-08-16T07:40:57.332Z,51.14
2018-08-16T07:41:37.935Z,50.07
2018-08-16T07:42:18.531Z,49.97
2018-08-16T07:42:59.089Z,49.77
2018-08-16T07:43:39.661Z,48.71
2018-08-16T07:44:20.224Z,48.42
2018-08-16T07:45:00.855Z,48.61
2018-08-16T07:45:41.602Z,49
2018-08-16T07:46:22.095Z,49.49
2018-08-16T07:47:02.639Z,49.58
2018-08-16T07:47:43.208Z,49.58
2018-08-16T07:48:23.831Z,49.49
2018-08-16T07:49:04.397Z,49.29
2018-08-16T07:49:44.980Z,49.58
2018-08-16T07:50:25.581Z,50.16
2018-08-16T07:51:06.182Z,49.58
2018-08-16T07:51:46.799Z,49.29
2018-08-16T07:52:27.309Z,49
2018-08-16T07:53:07.877Z,49
2018-08-16T07:53:48.451Z,49.97
2018-08-16T07:54:29.011Z,49.58
2018-08-16T07:55:09.583Z,49.77
2018-08-16T07:55:50.162Z,49.49
2018-08-16T07:56:30.741Z,48.71
2018-08-16T07:57:11.332Z,49.9
2018-08-16T07:57:51.900Z,50.09
2018-08-16T07:58:32.623Z,49.51
2018-08-16T07:59:13.104Z,49.41
2018-08-16T07:59:53.663Z,49.9
2018-08-16T08:00:34.230Z,49.02
2018-08-16T08:01:14.810Z,48.54
2018-08-16T08:01:55.374Z,48.73
2018-08-16T08:02:35.950Z,48.9
2018-08-16T08:03:16.568Z,48.9
2018-08-16T08:03:57.136Z,49.49
2018-08-16T08:04:37.699Z,49.49
2018-08-16T08:05:18.265Z,49.97
2018-08-16T08:05:58.929Z,49.97
2018-08-16T08:06:39.457Z,49.68
2018-08-16T08:07:20.014Z,50.07
2018-08-16T08:08:00.605Z,49.29
2018-08-16T08:08:41.167Z,49.87
2018-08-16T08:09:21.827Z,50.56
2018-08-16T08:10:02.322Z,50.65
2018-08-16T08:10:42.884Z,49.39
2018-08-16T08:11:23.462Z,49.97
2018-08-16T08:12:04.042Z,50.56
2018-08-16T08:12:44.628Z,49.97
2018-08-16T08:13:25.202Z,49.58
2018-08-16T08:14:05.777Z,48.8
2018-08-16T08:14:46.393Z,50.07
2018-08-16T08:15:27.012Z,49
2018-08-16T08:16:07.536Z,49.87
2018-08-16T08:16:48.111Z,49.49
2018-08-16T08:17:28.677Z,49.39
2018-08-16T08:18:09.321Z,50.07
2018-08-16T08:18:49.892Z,50.65
2018-08-16T08:19:31.116Z,50.84
2018-08-16T08:20:11.770Z,50.36
2018-08-16T08:20:52.334Z,48.9
2018-08-16T08:21:32.912Z,49.1
2018-08-16T08:22:13.481Z,48.9
2018-08-16T08:22:54.084Z,48.9
2018-08-16T08:23:34.682Z,48.05
2018-08-16T08:24:15.282Z,48.15
2018-08-16T08:24:55.870Z,48.42
2018-08-16T08:25:36.456Z,48.13
2018-08-16T08:26:17.183Z,48.52
2018-08-16T08:26:57.778Z,49.29
2018-08-16T08:27:38.528Z,49.87
2018-08-16T08:28:19.127Z,50.77
2018-08-16T08:28:59.703Z,50.38
2018-08-16T08:29:40.271Z,49.87
2018-08-16T08:30:20.861Z,49.22
2018-08-16T08:31:01.456Z,49.99
2018-08-16T08:31:42.069Z,49.49
2018-08-16T08:32:22.650Z,50.87
2018-08-16T08:33:03.210Z,50.29
2018-08-16T08:33:43.829Z,49.02
2018-08-16T08:34:24.397Z,48.73
2018-08-16T08:35:04.994Z,48.05
2018-08-16T08:35:45.591Z,47.76
2018-08-16T08:36:26.176Z,47.28
2018-08-16T08:37:06.751Z,48.22
2018-08-16T08:37:47.332Z,48.44
2018-08-16T08:38:27.972Z,48.13
2018-08-16T08:39:08.600Z,48.61
2018-08-16T08:39:49.161Z,47.93
2018-08-16T08:40:29.754Z,47.93
2018-08-16T08:41:10.436Z,48.32
2018-08-16T08:41:51.008Z,48.22
2018-08-16T08:42:31.578Z,47.64
2018-08-16T08:43:12.178Z,48.03
2018-08-16T08:43:52.761Z,47.64
2018-08-16T08:44:33.750Z,47.64
2018-08-16T08:45:14.673Z,48.8
2018-08-16T08:45:55.315Z,49.77